Snyder, Texas
Current Conditions -  °F | °C
As of 11:55 AM on Saturday 25 Oct 2014 (Local Time) from KSNK Reporting Station
Clear Clear  
Wind Chill: 73°   Ceiling: Unl
Heat Index: 73°   Visibility: 10mi
Dew Point: 61°   Wind: 10mph
Humidity: 67%   Direction: 230°SW
Pressure: 30.21"   Gusts: NA
Location:  32.72°N, 100.91°W
Report Text: KSNK 251655Z AUTO 23009KT 10SM CLR 23/16 A3021 RMK AO2 T02250161
Loading
Personal Weather Stations






























Interactive Weather Map
Tropical Storm Tracking
New forecast layout! Learn more

10-Day Weather Forecast

Advertisements
Track Severe Weather on mobile